66NC weather

Hood Field
Dover, North Carolina, United States

Public forecast

Using degrees Fahrenheit for public forecast. Weather courtesy of forecast.io.

METAR (pilot weather report)

Closest report is Kinston Regional Jetport At Stallings Field, 11.2 nm (20.8 km) NNW. Retrieved 2019/06/26 00:56 UTC (5 minutes ago):

KISO 260056Z 00000KT 10SM CLR 25/20 A2996

TAF (pilot weather forecast)

Forecast is more than 12 hours old.

Closest forecast is Kinston Regional Jetport At Stallings Field, 11.2 nm (20.8 km) NNW. Retrieved 2019/06/25 00:24 UTC (1 day ago):

TAF KISO 252321Z 2600/2624 30003KT P6SM SCT060 FM261500 01007KT P6SM SCT060 AMD LTD TO CLD VIS AND WIND